TimeMST,TemperatureF,Dew PointF,Humidity,Sea Level PressureIn,VisibilityMPH,Wind Direction,Wind SpeedMPH,Gust SpeedMPH,PrecipitationIn,Events,Conditions,WindDirDegrees,DateUTC
12:15 AM,36.7,18.9,49,29.85,10.0,West,12.7,26.5,N/A,,Mostly Cloudy,260,2013-02-18 07:15:00
12:35 AM,36.5,18.5,48,29.86,10.0,West,15.0,21.9,N/A,,Scattered Clouds,280,2013-02-18 07:35:00
12:55 AM,34.9,18.9,52,29.88,10.0,West,12.7,21.9,N/A,,Scattered Clouds,280,2013-02-18 07:55:00
1:35 AM,33.1,16.7,51,29.89,10.0,West,10.4,-,N/A,,Clear,280,2013-02-18 08:35:00
1:55 AM,32.4,14.9,49,29.91,10.0,West,10.4,-,N/A,,Clear,270,2013-02-18 08:55:00
2:15 AM,32.0,14.0,48,29.92,10.0,West,10.4,-,N/A,,Clear,260,2013-02-18 09:15:00
2:35 AM,32.0,13.6,47,29.93,10.0,West,6.9,-,N/A,,Clear,280,2013-02-18 09:35:00
2:55 AM,29.7,13.3,51,29.94,10.0,NNW,4.6,-,N/A,,Scattered Clouds,340,2013-02-18 09:55:00
3:15 AM,31.8,11.3,43,29.96,10.0,WNW,11.5,-,N/A,,Clear,290,2013-02-18 10:15:00
3:35 AM,31.5,11.1,43,29.97,10.0,NW,8.1,-,N/A,,Clear,320,2013-02-18 10:35:00
3:55 AM,30.0,10.2,44,29.98,10.0,NW,5.8,-,N/A,,Clear,310,2013-02-18 10:55:00
4:15 AM,31.6,7.0,35,29.99,10.0,NW,10.4,17.3,N/A,,Clear,320,2013-02-18 11:15:00
4:35 AM,30.7,8.6,40,30.00,10.0,West,12.7,18.4,N/A,,Clear,280,2013-02-18 11:35:00
4:55 AM,30.0,9.0,41,30.02,10.0,West,9.2,-,N/A,,Clear,280,2013-02-18 11:55:00
5:15 AM,28.4,9.1,44,30.03,10.0,SE,4.6,-,N/A,,Clear,140,2013-02-18 12:15:00
5:35 AM,27.7,10.0,48,30.04,10.0,Calm,Calm,-,N/A,,Clear,0,2013-02-18 12:35:00
5:55 AM,27.5,9.3,46,30.05,10.0,Calm,Calm,-,N/A,,Clear,0,2013-02-18 12:55:00
6:15 AM,25.0,9.0,51,30.05,10.0,NE,3.5,-,N/A,,Clear,50,2013-02-18 13:15:00
6:35 AM,25.7,9.5,50,30.07,10.0,Calm,Calm,-,N/A,,Clear,0,2013-02-18 13:35:00
6:55 AM,25.0,11.3,56,30.08,10.0,East,4.6,-,N/A,,Clear,80,2013-02-18 13:55:00
7:15 AM,21.7,10.8,63,30.09,10.0,NE,4.6,-,N/A,,Clear,50,2013-02-18 14:15:00
7:35 AM,23.0,11.7,62,30.10,10.0,NE,5.8,-,N/A,,Clear,50,2013-02-18 14:35:00
7:55 AM,26.1,12.9,58,30.11,10.0,NNE,3.5,-,N/A,,Clear,30,2013-02-18 14:55:00
8:15 AM,28.0,12.6,52,30.12,10.0,NE,5.8,-,N/A,,Clear,40,2013-02-18 15:15:00
8:35 AM,28.9,13.1,52,30.13,10.0,ENE,4.6,-,N/A,,Clear,60,2013-02-18 15:35:00
8:55 AM,30.0,12.9,49,30.14,10.0,East,5.8,-,N/A,,Clear,80,2013-02-18 15:55:00
9:15 AM,31.5,13.3,47,30.14,10.0,ENE,4.6,-,N/A,,Clear,60,2013-02-18 16:15:00
9:35 AM,32.4,13.1,45,30.15,10.0,East,3.5,-,N/A,,Clear,80,2013-02-18 16:35:00
9:55 AM,33.3,11.7,41,30.14,10.0,NE,5.8,-,N/A,,Clear,40,2013-02-18 16:55:00
10:15 AM,33.8,10.9,39,30.14,10.0,ENE,3.5,-,N/A,,Clear,60,2013-02-18 17:15:00
10:35 AM,35.1,9.7,35,30.14,10.0,East,4.6,-,N/A,,Clear,80,2013-02-18 17:35:00
10:55 AM,-9999,-9999,N/A,-9999,-9999.0,North,-9999.0,-,N/A,,Unknown,0,2013-02-18 17:55:00
11:35 AM,37.4,8.1,30,30.14,10.0,Calm,Calm,-,N/A,,Unknown,0,2013-02-18 18:35:00
11:55 AM,38.3,8.8,30,30.14,10.0,NE,4.6,-,N/A,,Clear,50,2013-02-18 18:55:00
12:15 PM,39.2,8.6,28,30.13,10.0,SE,6.9,-,N/A,,Clear,140,2013-02-18 19:15:00
12:35 PM,39.2,8.2,28,30.12,10.0,SSE,5.8,-,N/A,,Clear,160,2013-02-18 19:35:00
12:55 PM,39.2,7.2,27,30.11,10.0,ENE,4.6,-,N/A,,Clear,60,2013-02-18 19:55:00
1:15 PM,40.5,7.7,26,30.10,10.0,ESE,8.1,-,N/A,,Clear,110,2013-02-18 20:15:00
1:35 PM,40.8,5.7,23,30.10,10.0,Calm,Calm,-,N/A,,Clear,0,2013-02-18 20:35:00
1:55 PM,40.8,5.2,23,30.09,10.0,NE,4.6,-,N/A,,Clear,50,2013-02-18 20:55:00
2:15 PM,41.7,5.2,22,30.09,10.0,ESE,4.6,-,N/A,,Clear,120,2013-02-18 21:15:00
2:35 PM,42.1,4.8,21,30.09,10.0,SE,5.8,-,N/A,,Clear,130,2013-02-18 21:35:00
2:55 PM,42.8,4.3,20,30.09,10.0,Calm,Calm,-,N/A,,Clear,0,2013-02-18 21:55:00
3:15 PM,43.7,3.9,19,30.09,10.0,NNW,3.5,-,N/A,,Clear,330,2013-02-18 22:15:00
3:35 PM,43.7,4.5,20,30.08,10.0,South,4.6,-,N/A,,Clear,180,2013-02-18 22:35:00
3:55 PM,42.4,4.3,21,30.08,10.0,SSE,4.6,-,N/A,,Clear,160,2013-02-18 22:55:00
4:35 PM,42.1,5.4,22,30.09,10.0,SSW,6.9,-,N/A,,Clear,210,2013-02-18 23:35:00
4:55 PM,42.8,5.7,22,30.09,10.0,South,4.6,-,N/A,,Clear,190,2013-02-18 23:55:00
5:15 PM,42.3,6.4,23,30.09,10.0,SW,5.8,-,N/A,,Clear,230,2013-02-19 00:15:00
5:35 PM,41.5,7.0,24,30.08,10.0,SW,5.8,-,N/A,,Clear,220,2013-02-19 00:35:00
5:55 PM,40.1,7.0,25,30.09,10.0,West,4.6,-,N/A,,Clear,260,2013-02-19 00:55:00
6:15 PM,38.3,7.5,28,30.09,10.0,Calm,Calm,-,N/A,,Clear,0,2013-02-19 01:15:00
6:35 PM,36.7,7.7,30,30.10,10.0,Calm,Calm,-,N/A,,Clear,0,2013-02-19 01:35:00
6:55 PM,34.3,7.2,32,30.10,10.0,North,6.9,-,N/A,,Clear,360,2013-02-19 01:55:00
7:15 PM,33.4,7.5,34,30.10,10.0,North,6.9,-,N/A,,Clear,360,2013-02-19 02:15:00
7:35 PM,32.0,6.6,34,30.11,10.0,East,4.6,-,N/A,,Clear,100,2013-02-19 02:35:00
7:55 PM,31.6,6.4,35,30.10,10.0,ENE,6.9,-,N/A,,Clear,70,2013-02-19 02:55:00
8:15 PM,31.6,7.7,37,30.11,10.0,ENE,6.9,-,N/A,,Clear,60,2013-02-19 03:15:00
8:35 PM,31.5,8.4,38,30.11,10.0,Calm,Calm,-,N/A,,Clear,0,2013-02-19 03:35:00
8:55 PM,30.9,8.2,39,30.11,10.0,NNE,3.5,-,N/A,,Clear,20,2013-02-19 03:55:00
9:15 PM,29.3,9.0,43,30.11,10.0,ENE,5.8,-,N/A,,Clear,70,2013-02-19 04:15:00
9:35 PM,30.0,7.7,39,30.10,10.0,NE,9.2,-,N/A,,Clear,50,2013-02-19 04:35:00
9:55 PM,32.0,8.2,37,30.11,10.0,ENE,9.2,-,N/A,,Clear,70,2013-02-19 04:55:00
10:15 PM,30.0,9.9,43,30.11,10.0,ENE,8.1,-,N/A,,Clear,60,2013-02-19 05:15:00
10:35 PM,29.8,9.5,43,30.11,10.0,East,9.2,-,N/A,,Clear,90,2013-02-19 05:35:00
10:55 PM,27.9,10.4,48,30.11,10.0,ESE,5.8,-,N/A,,Clear,120,2013-02-19 05:55:00
11:15 PM,26.6,10.2,50,30.11,10.0,ENE,3.5,-,N/A,,Clear,70,2013-02-19 06:15:00
11:35 PM,25.7,9.7,51,30.10,10.0,NE,5.8,-,N/A,,Clear,50,2013-02-19 06:35:00
11:55 PM,23.5,9.1,54,30.10,10.0,NE,6.9,-,N/A,,Clear,40,2013-02-19 06:55:00